Time;durP1;ratioP1;P1;durP2;ratioP2;P2;SDS_P1;SDS_P2;PMS_P1;PMS_P2;Temp;Humidity;BMP_temperature;BMP_pressure;BME280_temperature;BME280_humidity;BME280_pressure;Samples;Min_cycle;Max_cycle;Signal;HPM_P1;HPM_P2
2022/03/20 19:54:21;;;;;;;9.45;8.45;;;16.80;66.40;;;;;;2296656;62;30191;-90
2022/03/20 19:56:49;;;;;;;9.30;8.02;;;16.80;66.40;;;;;;2288026;62;30329;-92
2022/03/20 19:59:15;;;;;;;9.02;8.13;;;16.80;67.40;;;;;;2294698;62;29582;-91
2022/03/20 20:01:41;;;;;;;8.85;7.95;;;16.80;68.30;;;;;;2293232;62;30110;-93
2022/03/20 20:04:07;;;;;;;9.98;7.65;;;16.90;69.00;;;;;;2292823;62;29947;-91
2022/03/20 20:06:33;;;;;;;9.55;8.65;;;16.90;69.40;;;;;;2292330;62;30115;-92
2022/03/20 20:08:58;;;;;;;8.70;7.72;;;16.90;69.70;;;;;;2291920;62;30027;-89
2022/03/20 20:11:25;;;;;;;7.90;7.20;;;17.00;69.90;;;;;;2291838;62;30170;-87
2022/03/20 20:16:35;;;;;;;8.18;7.38;;;17.10;70.10;;;;;;2290409;62;30859;-87
2022/03/20 20:19:01;;;;;;;7.88;7.07;;;17.10;70.10;;;;;;2286434;62;30616;-84
2022/03/20 20:21:27;;;;;;;7.25;6.55;;;17.10;70.00;;;;;;2286686;62;32288;-86
2022/03/20 20:23:53;;;;;;;9.13;7.60;;;17.20;69.90;;;;;;2287434;62;30515;-84
2022/03/20 20:26:21;;;;;;;8.38;7.55;;;17.20;69.80;;;;;;2281997;62;30371;-85
2022/03/20 20:28:47;;;;;;;8.23;7.22;;;17.30;69.60;;;;;;2276551;62;32417;-90
2022/03/20 20:31:13;;;;;;;8.80;7.38;;;17.30;69.50;;;;;;2290436;62;32806;-89
2022/03/20 20:33:39;;;;;;;7.95;7.20;;;17.30;69.40;;;;;;2283764;62;30076;-90
2022/03/20 20:36:05;;;;;;;7.88;7.03;;;17.40;69.20;;;;;;2283986;62;30320;-87
2022/03/20 20:38:31;;;;;;;8.15;7.30;;;17.40;69.00;;;;;;2282932;62;29831;-86
2022/03/20 20:40:57;;;;;;;8.20;7.40;;;17.40;68.90;;;;;;2288291;62;31971;-95
2022/03/20 20:43:23;;;;;;;7.97;7.15;;;17.40;68.70;;;;;;2282136;62;30768;-87
2022/03/20 20:45:50;;;;;;;7.85;7.05;;;17.50;68.60;;;;;;2293306;62;29885;-87
2022/03/20 20:48:17;;;;;;;7.60;6.80;;;17.50;68.40;;;;;;2294314;62;30188;-88
2022/03/20 20:50:44;;;;;;;8.15;7.25;;;17.50;68.30;;;;;;2290652;62;30662;-87
2022/03/20 20:53:09;;;;;;;7.78;6.97;;;17.50;68.20;;;;;;2290023;62;30762;-85
2022/03/20 20:55:36;;;;;;;7.80;7.00;;;17.50;68.00;;;;;;2282284;62;30672;-87
2022/03/20 20:58:03;;;;;;;7.00;6.30;;;17.50;67.90;;;;;;2274481;62;30768;-92
2022/03/20 21:00:29;;;;;;;7.97;6.95;;;17.60;67.80;;;;;;2278035;62;30964;-90
2022/03/20 21:02:55;;;;;;;7.50;6.80;;;17.60;67.70;;;;;;2282487;62;30546;-88
2022/03/20 21:05:21;;;;;;;7.38;6.68;;;17.60;67.60;;;;;;2281398;62;30244;-85
2022/03/20 21:13:16;;;;;;;7.80;7.05;;;17.60;67.40;;;;;;2287058;62;29862;-91
2022/03/20 21:15:43;;;;;;;8.38;7.35;;;17.60;67.30;;;;;;2278866;62;30112;-82
2022/03/20 21:18:09;;;;;;;7.13;6.50;;;17.60;67.20;;;;;;2284295;62;30802;-83
2022/03/20 21:20:36;;;;;;;7.65;6.93;;;17.60;67.10;;;;;;2269859;62;30983;-82
2022/03/20 21:23:02;;;;;;;7.78;7.07;;;17.60;67.00;;;;;;2284204;62;30500;-82
2022/03/20 21:25:28;;;;;;;7.63;6.95;;;17.60;67.00;;;;;;2284223;62;30356;-80
2022/03/20 21:27:56;;;;;;;8.23;7.43;;;17.60;66.90;;;;;;2283989;62;30328;-82
2022/03/20 21:30:23;;;;;;;8.13;7.32;;;17.60;66.90;;;;;;2271109;62;30436;-82
2022/03/20 21:32:49;;;;;;;7.53;6.82;;;17.60;66.80;;;;;;2265535;62;30203;-83
2022/03/20 21:35:15;;;;;;;7.93;7.22;;;17.60;66.70;;;;;;2276155;62;30910;-79
2022/03/20 21:37:43;;;;;;;8.40;7.50;;;17.60;66.70;;;;;;2276190;62;30654;-82
2022/03/20 21:40:10;;;;;;;8.85;7.60;;;17.60;66.60;;;;;;2276222;62;32142;-82
2022/03/20 21:42:40;;;;;;;9.55;7.90;;;17.60;66.60;;;;;;2275906;62;30437;-81
2022/03/20 21:45:09;;;;;;;8.05;7.25;;;17.60;66.40;;;;;;2277109;62;30713;-78
2022/03/20 21:47:35;;;;;;;8.23;7.35;;;17.60;66.50;;;;;;2269870;62;30850;-82
2022/03/20 21:50:01;;;;;;;9.55;7.35;;;17.60;66.60;;;;;;2283383;62;31018;-82
2022/03/20 21:52:27;;;;;;;7.72;7.03;;;17.60;66.40;;;;;;2283610;62;31986;-80
2022/03/20 21:54:53;;;;;;;8.20;7.40;;;17.60;66.40;;;;;;2283754;62;30268;-80
2022/03/20 21:57:22;;;;;;;7.72;7.03;;;17.60;66.30;;;;;;2283424;62;30814;-80
2022/03/20 21:59:49;;;;;;;7.82;7.13;;;17.60;66.20;;;;;;2284021;62;31976;-87
2022/03/20 22:02:15;;;;;;;8.25;7.45;;;17.60;66.20;;;;;;2284158;62;30311;-88
2022/03/20 22:04:42;;;;;;;8.93;6.82;;;17.60;66.30;;;;;;2284169;62;30157;-87
2022/03/20 22:07:08;;;;;;;8.52;7.00;;;17.60;66.20;;;;;;2284289;62;30072;-87
2022/03/20 22:09:34;;;;;;;9.65;8.68;;;17.60;66.10;;;;;;2283822;62;30741;-85
2022/03/20 22:12:00;;;;;;;9.85;8.52;;;17.60;66.10;;;;;;2284070;62;30164;-84
2022/03/20 22:14:26;;;;;;;10.38;8.63;;;17.60;66.10;;;;;;2276421;62;30189;-83
2022/03/20 22:16:52;;;;;;;9.55;8.27;;;17.60;66.00;;;;;;2282995;62;30401;-83
2022/03/20 22:19:18;;;;;;;9.05;8.07;;;17.60;66.00;;;;;;2284469;62;31007;-82
2022/03/20 22:21:44;;;;;;;9.23;8.27;;;17.50;65.90;;;;;;2285438;62;31180;-82
2022/03/20 22:24:11;;;;;;;8.88;7.97;;;17.50;66.10;;;;;;2283612;62;30282;-81
2022/03/20 22:26:38;;;;;;;9.07;8.15;;;17.40;66.00;;;;;;2278939;62;30259;-87
2022/03/20 22:29:08;;;;;;;9.27;8.07;;;17.50;66.10;;;;;;2263892;62;33267;-83
2022/03/20 22:31:35;;;;;;;8.48;7.68;;;17.50;65.90;;;;;;2275464;62;30510;-88
2022/03/20 22:34:01;;;;;;;8.73;7.70;;;17.50;66.00;;;;;;2275529;62;30215;-88
2022/03/20 22:39:12;;;;;;;8.50;7.72;;;17.50;65.90;;;;;;2269680;62;30403;-88
2022/03/20 22:41:38;;;;;;;8.00;7.20;;;17.50;65.80;;;;;;2273394;62;31937;-89
2022/03/20 22:44:05;;;;;;;9.48;8.02;;;17.50;65.80;;;;;;2277180;62;30653;-91
2022/03/20 22:46:31;;;;;;;8.77;7.55;;;17.50;65.90;;;;;;2286971;62;29801;-91
2022/03/20 22:51:45;;;;;;;8.68;7.78;;;17.40;65.80;;;;;;2280232;62;30804;-93
2022/03/20 22:54:12;;;;;;;8.52;7.63;;;17.40;66.00;;;;;;2285037;62;30506;-92
2022/03/20 22:56:38;;;;;;;7.90;7.15;;;17.40;66.00;;;;;;2284456;62;30335;-87
2022/03/20 22:59:05;;;;;;;8.13;7.32;;;17.40;66.00;;;;;;2280842;62;30946;-92
2022/03/20 23:01:33;;;;;;;8.48;7.65;;;17.40;66.00;;;;;;2287878;62;29604;-89
2022/03/20 23:03:59;;;;;;;7.82;7.13;;;17.40;66.00;;;;;;2282621;62;29959;-83
2022/03/20 23:06:25;;;;;;;10.30;8.20;;;17.40;66.00;;;;;;2278568;62;30126;-83
2022/03/20 23:08:52;;;;;;;15.13;8.30;;;17.40;65.90;;;;;;2275661;62;31109;-88
2022/03/20 23:11:18;;;;;;;8.77;7.80;;;17.40;66.00;;;;;;2284181;62;30515;-91
2022/03/20 23:13:44;;;;;;;11.93;8.07;;;17.40;65.80;;;;;;2285017;62;29996;-88
2022/03/20 23:16:11;;;;;;;9.32;7.53;;;17.40;65.80;;;;;;2284960;62;30554;-84
2022/03/20 23:18:37;;;;;;;10.68;8.05;;;17.30;66.10;;;;;;2284792;62;32156;-88
2022/03/20 23:21:03;;;;;;;12.70;7.90;;;17.20;66.20;;;;;;2284768;62;30190;-84
2022/03/20 23:23:28;;;;;;;8.93;7.63;;;17.10;66.30;;;;;;2281032;62;30007;-79
2022/03/20 23:25:54;;;;;;;9.02;7.68;;;17.00;67.20;;;;;;2284718;62;30083;-79
2022/03/20 23:28:20;;;;;;;10.63;7.60;;;16.90;66.60;;;;;;2284376;62;31101;-84
2022/03/20 23:30:46;;;;;;;10.50;8.02;;;16.90;66.80;;;;;;2270533;62;30221;-79
2022/03/20 23:33:12;;;;;;;11.52;8.15;;;16.80;66.80;;;;;;2277132;62;30293;-79
2022/03/20 23:35:42;;;;;;;8.68;7.82;;;16.70;67.00;;;;;;2284581;62;30097;-77
2022/03/20 23:38:09;;;;;;;10.40;8.35;;;16.60;67.00;;;;;;2284506;62;31038;-76
2022/03/20 23:40:36;;;;;;;11.85;9.18;;;16.60;67.20;;;;;;2284602;62;30547;-79
2022/03/20 23:43:14;;;;;;;10.68;8.85;;;16.50;67.30;;;;;;2277124;62;30268;-79
2022/03/20 23:45:45;;;;;;;9.15;8.20;;;16.50;67.40;;;;;;2284523;62;30243;-81
2022/03/20 23:48:11;;;;;;;9.25;8.35;;;16.40;67.50;;;;;;2284397;62;31087;-81
2022/03/20 23:50:37;;;;;;;10.25;8.45;;;16.30;67.60;;;;;;2270193;62;30909;-80
2022/03/20 23:53:02;;;;;;;10.52;8.93;;;16.30;67.60;;;;;;2284282;62;30128;-80
2022/03/20 23:55:28;;;;;;;10.02;9.02;;;16.30;67.70;;;;;;2284339;62;30041;-80
2022/03/20 23:58:07;;;;;;;9.98;8.95;;;16.20;67.80;;;;;;2284414;62;30228;-79
